sensor_id;sensor_type;location;lat;lon;timestamp;temperature;humidity
39675;DHT22;27790;50.840;4.386;2023-02-28T00:00:19;3.40;94.50
39675;DHT22;27790;50.840;4.386;2023-02-28T00:02:45;3.40;94.40
39675;DHT22;27790;50.840;4.386;2023-02-28T00:05:12;3.40;94.50
39675;DHT22;27790;50.840;4.386;2023-02-28T00:07:38;3.30;94.60
39675;DHT22;27790;50.840;4.386;2023-02-28T00:10:04;3.20;94.70
39675;DHT22;27790;50.840;4.386;2023-02-28T00:12:31;3.20;94.80
39675;DHT22;27790;50.840;4.386;2023-02-28T00:14:57;3.20;94.90
39675;DHT22;27790;50.840;4.386;2023-02-28T00:17:22;3.20;94.90
39675;DHT22;27790;50.840;4.386;2023-02-28T00:19:49;3.20;94.90
39675;DHT22;27790;50.840;4.386;2023-02-28T00:22:18;3.20;94.90
39675;DHT22;27790;50.840;4.386;2023-02-28T00:24:43;3.30;95.00
39675;DHT22;27790;50.840;4.386;2023-02-28T00:27:09;3.20;95.00
39675;DHT22;27790;50.840;4.386;2023-02-28T00:29:35;3.20;95.00
39675;DHT22;27790;50.840;4.386;2023-02-28T00:32:00;3.20;95.00
39675;DHT22;27790;50.840;4.386;2023-02-28T00:34:26;3.20;95.00
39675;DHT22;27790;50.840;4.386;2023-02-28T00:36:51;3.20;95.10
39675;DHT22;27790;50.840;4.386;2023-02-28T00:39:17;3.10;95.10
39675;DHT22;27790;50.840;4.386;2023-02-28T00:41:42;3.10;95.20
39675;DHT22;27790;50.840;4.386;2023-02-28T00:44:08;3.10;95.10
39675;DHT22;27790;50.840;4.386;2023-02-28T00:46:33;3.10;95.20
39675;DHT22;27790;50.840;4.386;2023-02-28T00:48:59;3.10;95.30
39675;DHT22;27790;50.840;4.386;2023-02-28T00:51:24;3.00;95.40
39675;DHT22;27790;50.840;4.386;2023-02-28T00:53:50;2.90;95.40
39675;DHT22;27790;50.840;4.386;2023-02-28T00:56:15;2.90;95.50
39675;DHT22;27790;50.840;4.386;2023-02-28T00:58:41;2.90;95.60
39675;DHT22;27790;50.840;4.386;2023-02-28T01:01:06;2.90;95.60
39675;DHT22;27790;50.840;4.386;2023-02-28T01:03:32;2.80;95.60
39675;DHT22;27790;50.840;4.386;2023-02-28T01:05:58;2.80;95.80
39675;DHT22;27790;50.840;4.386;2023-02-28T01:08:23;2.90;95.60
39675;DHT22;27790;50.840;4.386;2023-02-28T01:10:49;2.90;95.60
39675;DHT22;27790;50.840;4.386;2023-02-28T01:13:14;2.80;95.80
39675;DHT22;27790;50.840;4.386;2023-02-28T01:15:41;2.80;95.90
39675;DHT22;27790;50.840;4.386;2023-02-28T01:18:08;2.80;95.90
39675;DHT22;27790;50.840;4.386;2023-02-28T01:20:33;2.90;95.90
39675;DHT22;27790;50.840;4.386;2023-02-28T01:23:01;2.90;95.90
39675;DHT22;27790;50.840;4.386;2023-02-28T01:25:26;2.90;95.80
39675;DHT22;27790;50.840;4.386;2023-02-28T01:27:52;2.90;95.80
39675;DHT22;27790;50.840;4.386;2023-02-28T01:30:17;2.90;95.90
39675;DHT22;27790;50.840;4.386;2023-02-28T01:32:43;2.90;95.90
39675;DHT22;27790;50.840;4.386;2023-02-28T01:35:08;2.90;95.90
39675;DHT22;27790;50.840;4.386;2023-02-28T01:37:34;2.90;95.80
39675;DHT22;27790;50.840;4.386;2023-02-28T01:39:59;2.80;96.00
39675;DHT22;27790;50.840;4.386;2023-02-28T01:42:25;2.80;96.00
39675;DHT22;27790;50.840;4.386;2023-02-28T01:44:55;2.80;96.00
39675;DHT22;27790;50.840;4.386;2023-02-28T01:47:22;2.80;96.10
39675;DHT22;27790;50.840;4.386;2023-02-28T01:49:48;2.80;96.00
39675;DHT22;27790;50.840;4.386;2023-02-28T01:52:15;2.80;96.00
39675;DHT22;27790;50.840;4.386;2023-02-28T01:54:44;2.70;96.10
39675;DHT22;27790;50.840;4.386;2023-02-28T01:57:11;2.70;96.20
39675;DHT22;27790;50.840;4.386;2023-02-28T01:59:47;2.60;96.40
39675;DHT22;27790;50.840;4.386;2023-02-28T02:02:16;2.50;96.40
39675;DHT22;27790;50.840;4.386;2023-02-28T02:04:46;2.50;96.50
39675;DHT22;27790;50.840;4.386;2023-02-28T02:07:13;2.40;96.60
39675;DHT22;27790;50.840;4.386;2023-02-28T02:09:39;2.40;96.70
39675;DHT22;27790;50.840;4.386;2023-02-28T02:12:08;2.40;96.80
39675;DHT22;27790;50.840;4.386;2023-02-28T02:19:53;2.40;96.90
39675;DHT22;27790;50.840;4.386;2023-02-28T02:25:11;2.40;96.80
39675;DHT22;27790;50.840;4.386;2023-02-28T02:28:25;2.30;96.90
39675;DHT22;27790;50.840;4.386;2023-02-28T02:35:31;2.20;97.20
39675;DHT22;27790;50.840;4.386;2023-02-28T02:40:27;2.10;97.40
39675;DHT22;27790;50.840;4.386;2023-02-28T02:43:03;2.10;97.50
39675;DHT22;27790;50.840;4.386;2023-02-28T02:48:08;2.20;97.40
39675;DHT22;27790;50.840;4.386;2023-02-28T02:50:37;2.10;97.30
39675;DHT22;27790;50.840;4.386;2023-02-28T02:53:03;2.10;97.40
39675;DHT22;27790;50.840;4.386;2023-02-28T02:55:30;2.20;97.50
39675;DHT22;27790;50.840;4.386;2023-02-28T02:58:01;2.20;97.40
39675;DHT22;27790;50.840;4.386;2023-02-28T03:00:30;2.20;97.40
39675;DHT22;27790;50.840;4.386;2023-02-28T03:02:56;2.20;97.40
39675;DHT22;27790;50.840;4.386;2023-02-28T03:05:26;2.20;97.50
39675;DHT22;27790;50.840;4.386;2023-02-28T03:07:51;2.10;97.50
39675;DHT22;27790;50.840;4.386;2023-02-28T03:13:00;2.00;97.70
39675;DHT22;27790;50.840;4.386;2023-02-28T03:15:29;2.00;97.80
39675;DHT22;27790;50.840;4.386;2023-02-28T03:20:35;2.00;97.90
39675;DHT22;27790;50.840;4.386;2023-02-28T03:23:10;2.10;97.90
39675;DHT22;27790;50.840;4.386;2023-02-28T03:28:14;2.10;97.90
39675;DHT22;27790;50.840;4.386;2023-02-28T03:31:00;2.20;97.80
39675;DHT22;27790;50.840;4.386;2023-02-28T03:33:51;2.20;97.70
39675;DHT22;27790;50.840;4.386;2023-02-28T03:36:21;2.20;97.70
39675;DHT22;27790;50.840;4.386;2023-02-28T03:38:58;2.20;97.70
39675;DHT22;27790;50.840;4.386;2023-02-28T03:41:38;2.10;97.80
39675;DHT22;27790;50.840;4.386;2023-02-28T03:44:07;2.10;97.90
39675;DHT22;27790;50.840;4.386;2023-02-28T03:46:36;2.10;97.90
39675;DHT22;27790;50.840;4.386;2023-02-28T03:49:05;2.10;98.00
39675;DHT22;27790;50.840;4.386;2023-02-28T03:51:33;2.10;98.00
39675;DHT22;27790;50.840;4.386;2023-02-28T03:54:01;2.20;98.00
39675;DHT22;27790;50.840;4.386;2023-02-28T03:56:39;2.20;97.80
39675;DHT22;27790;50.840;4.386;2023-02-28T04:01:43;2.10;98.00
39675;DHT22;27790;50.840;4.386;2023-02-28T04:04:09;2.10;98.00
39675;DHT22;27790;50.840;4.386;2023-02-28T04:06:35;2.00;98.00
39675;DHT22;27790;50.840;4.386;2023-02-28T04:09:01;2.00;98.10
39675;DHT22;27790;50.840;4.386;2023-02-28T04:13:56;2.00;98.10
39675;DHT22;27790;50.840;4.386;2023-02-28T04:16:21;2.00;98.20
39675;DHT22;27790;50.840;4.386;2023-02-28T04:18:47;2.00;98.20
39675;DHT22;27790;50.840;4.386;2023-02-28T04:21:12;1.90;98.20
39675;DHT22;27790;50.840;4.386;2023-02-28T04:23:38;2.00;98.20
39675;DHT22;27790;50.840;4.386;2023-02-28T04:26:03;2.00;98.20
39675;DHT22;27790;50.840;4.386;2023-02-28T04:28:29;2.00;98.20
39675;DHT22;27790;50.840;4.386;2023-02-28T04:30:58;1.90;98.30
39675;DHT22;27790;50.840;4.386;2023-02-28T04:33:24;2.00;98.20
39675;DHT22;27790;50.840;4.386;2023-02-28T04:38:28;1.80;98.40
39675;DHT22;27790;50.840;4.386;2023-02-28T04:40:53;1.80;98.50
39675;DHT22;27790;50.840;4.386;2023-02-28T04:43:19;1.90;98.50
39675;DHT22;27790;50.840;4.386;2023-02-28T04:45:44;1.80;98.50
39675;DHT22;27790;50.840;4.386;2023-02-28T04:48:10;1.80;98.50
39675;DHT22;27790;50.840;4.386;2023-02-28T04:50:35;1.80;98.60
39675;DHT22;27790;50.840;4.386;2023-02-28T04:53:01;1.90;98.50
39675;DHT22;27790;50.840;4.386;2023-02-28T04:55:26;1.90;98.40
39675;DHT22;27790;50.840;4.386;2023-02-28T04:57:51;2.00;98.40
39675;DHT22;27790;50.840;4.386;2023-02-28T05:00:17;2.00;98.50
39675;DHT22;27790;50.840;4.386;2023-02-28T05:02:43;2.00;98.50
39675;DHT22;27790;50.840;4.386;2023-02-28T05:05:08;2.00;98.40
39675;DHT22;27790;50.840;4.386;2023-02-28T05:07:34;2.00;98.40
39675;DHT22;27790;50.840;4.386;2023-02-28T05:09:59;2.10;98.40
39675;DHT22;27790;50.840;4.386;2023-02-28T05:12:25;2.10;98.30
39675;DHT22;27790;50.840;4.386;2023-02-28T05:14:50;2.20;98.40
39675;DHT22;27790;50.840;4.386;2023-02-28T05:17:15;2.20;98.30
39675;DHT22;27790;50.840;4.386;2023-02-28T05:19:41;2.30;98.00
39675;DHT22;27790;50.840;4.386;2023-02-28T05:22:12;2.40;97.90
39675;DHT22;27790;50.840;4.386;2023-02-28T05:24:38;2.40;98.00
39675;DHT22;27790;50.840;4.386;2023-02-28T05:27:03;2.40;97.90
39675;DHT22;27790;50.840;4.386;2023-02-28T05:29:29;2.50;98.00
39675;DHT22;27790;50.840;4.386;2023-02-28T05:31:54;2.60;97.80
39675;DHT22;27790;50.840;4.386;2023-02-28T05:34:20;2.70;97.70
39675;DHT22;27790;50.840;4.386;2023-02-28T05:36:45;2.80;97.40
39675;DHT22;27790;50.840;4.386;2023-02-28T05:39:11;2.80;97.30
39675;DHT22;27790;50.840;4.386;2023-02-28T05:41:41;2.80;97.20
39675;DHT22;27790;50.840;4.386;2023-02-28T05:44:07;2.70;97.30
39675;DHT22;27790;50.840;4.386;2023-02-28T05:46:32;2.60;97.40
39675;DHT22;27790;50.840;4.386;2023-02-28T05:48:58;2.50;97.40
39675;DHT22;27790;50.840;4.386;2023-02-28T05:51:25;2.60;97.70
39675;DHT22;27790;50.840;4.386;2023-02-28T05:53:50;2.60;97.60
39675;DHT22;27790;50.840;4.386;2023-02-28T05:56:16;2.60;97.60
39675;DHT22;27790;50.840;4.386;2023-02-28T05:58:41;2.60;97.60
39675;DHT22;27790;50.840;4.386;2023-02-28T06:03:44;2.70;97.40
39675;DHT22;27790;50.840;4.386;2023-02-28T06:06:09;2.80;97.50
39675;DHT22;27790;50.840;4.386;2023-02-28T06:08:35;2.90;97.20
39675;DHT22;27790;50.840;4.386;2023-02-28T06:11:02;2.80;97.10
39675;DHT22;27790;50.840;4.386;2023-02-28T06:13:28;2.70;97.30
39675;DHT22;27790;50.840;4.386;2023-02-28T06:15:53;2.60;97.50
39675;DHT22;27790;50.840;4.386;2023-02-28T06:18:19;2.70;97.80
39675;DHT22;27790;50.840;4.386;2023-02-28T06:20:44;2.70;97.40
39675;DHT22;27790;50.840;4.386;2023-02-28T06:23:10;2.70;97.50
39675;DHT22;27790;50.840;4.386;2023-02-28T06:25:35;2.60;97.60
39675;DHT22;27790;50.840;4.386;2023-02-28T06:28:01;2.70;97.60
39675;DHT22;27790;50.840;4.386;2023-02-28T06:30:26;2.80;97.50
39675;DHT22;27790;50.840;4.386;2023-02-28T06:32:55;2.80;97.50
39675;DHT22;27790;50.840;4.386;2023-02-28T06:35:20;3.00;97.40
39675;DHT22;27790;50.840;4.386;2023-02-28T06:37:46;3.10;97.30
39675;DHT22;27790;50.840;4.386;2023-02-28T06:40:12;3.00;96.90
39675;DHT22;27790;50.840;4.386;2023-02-28T06:42:38;3.10;97.00
39675;DHT22;27790;50.840;4.386;2023-02-28T06:45:03;3.00;96.70
39675;DHT22;27790;50.840;4.386;2023-02-28T06:47:34;2.90;97.00
39675;DHT22;27790;50.840;4.386;2023-02-28T06:50:00;2.90;97.20
39675;DHT22;27790;50.840;4.386;2023-02-28T06:52:26;2.90;97.00
39675;DHT22;27790;50.840;4.386;2023-02-28T06:54:52;2.90;97.00
39675;DHT22;27790;50.840;4.386;2023-02-28T06:57:28;3.00;97.10
39675;DHT22;27790;50.840;4.386;2023-02-28T06:59:57;3.00;97.00
39675;DHT22;27790;50.840;4.386;2023-02-28T07:02:23;3.00;96.90
39675;DHT22;27790;50.840;4.386;2023-02-28T07:04:48;3.00;97.00
39675;DHT22;27790;50.840;4.386;2023-02-28T07:07:14;3.10;96.90
39675;DHT22;27790;50.840;4.386;2023-02-28T07:09:39;3.20;97.00
39675;DHT22;27790;50.840;4.386;2023-02-28T07:12:05;3.40;96.90
39675;DHT22;27790;50.840;4.386;2023-02-28T07:14:30;3.60;96.50
39675;DHT22;27790;50.840;4.386;2023-02-28T07:16:56;3.80;96.30
39675;DHT22;27790;50.840;4.386;2023-02-28T07:19:21;3.80;96.10
39675;DHT22;27790;50.840;4.386;2023-02-28T07:21:47;3.90;95.80
39675;DHT22;27790;50.840;4.386;2023-02-28T07:24:12;3.80;95.80
39675;DHT22;27790;50.840;4.386;2023-02-28T07:26:40;3.80;95.60
39675;DHT22;27790;50.840;4.386;2023-02-28T07:29:06;4.00;95.80
39675;DHT22;27790;50.840;4.386;2023-02-28T07:31:31;4.00;95.60
39675;DHT22;27790;50.840;4.386;2023-02-28T07:33:57;4.20;95.50
39675;DHT22;27790;50.840;4.386;2023-02-28T07:36:22;4.40;95.40
39675;DHT22;27790;50.840;4.386;2023-02-28T07:38:48;4.50;94.90
39675;DHT22;27790;50.840;4.386;2023-02-28T07:41:15;4.40;94.70
39675;DHT22;27790;50.840;4.386;2023-02-28T07:43:41;4.40;94.60
39675;DHT22;27790;50.840;4.386;2023-02-28T07:46:08;4.40;94.30
39675;DHT22;27790;50.840;4.386;2023-02-28T07:48:34;4.50;94.30
39675;DHT22;27790;50.840;4.386;2023-02-28T07:51:02;4.50;93.90
39675;DHT22;27790;50.840;4.386;2023-02-28T07:53:28;4.60;94.00
39675;DHT22;27790;50.840;4.386;2023-02-28T07:55:57;4.90;93.80
39675;DHT22;27790;50.840;4.386;2023-02-28T07:58:23;5.40;93.00
39675;DHT22;27790;50.840;4.386;2023-02-28T08:00:49;6.00;92.40
39675;DHT22;27790;50.840;4.386;2023-02-28T08:03:14;6.20;91.30
39675;DHT22;27790;50.840;4.386;2023-02-28T08:05:40;6.40;90.80
39675;DHT22;27790;50.840;4.386;2023-02-28T08:08:06;7.00;91.20
39675;DHT22;27790;50.840;4.386;2023-02-28T08:10:32;7.10;88.50
39675;DHT22;27790;50.840;4.386;2023-02-28T08:12:57;7.30;88.50
39675;DHT22;27790;50.840;4.386;2023-02-28T08:15:23;7.40;87.50
39675;DHT22;27790;50.840;4.386;2023-02-28T08:17:48;7.60;85.40
39675;DHT22;27790;50.840;4.386;2023-02-28T08:20:14;7.80;85.30
39675;DHT22;27790;50.840;4.386;2023-02-28T08:22:39;8.10;84.20
39675;DHT22;27790;50.840;4.386;2023-02-28T08:25:05;8.10;81.80
39675;DHT22;27790;50.840;4.386;2023-02-28T08:27:32;8.20;82.30
39675;DHT22;27790;50.840;4.386;2023-02-28T08:29:58;8.10;81.10
39675;DHT22;27790;50.840;4.386;2023-02-28T08:32:23;8.20;81.20
39675;DHT22;27790;50.840;4.386;2023-02-28T08:34:49;8.30;80.10
39675;DHT22;27790;50.840;4.386;2023-02-28T08:37:14;8.30;80.30
39675;DHT22;27790;50.840;4.386;2023-02-28T08:39:40;8.50;80.80
39675;DHT22;27790;50.840;4.386;2023-02-28T08:42:05;8.60;79.50
39675;DHT22;27790;50.840;4.386;2023-02-28T08:44:32;8.70;79.00
39675;DHT22;27790;50.840;4.386;2023-02-28T08:46:57;8.60;78.60
39675;DHT22;27790;50.840;4.386;2023-02-28T08:49:23;8.50;78.30
39675;DHT22;27790;50.840;4.386;2023-02-28T08:51:48;8.50;78.10
39675;DHT22;27790;50.840;4.386;2023-02-28T08:54:14;8.60;78.40
39675;DHT22;27790;50.840;4.386;2023-02-28T08:56:45;8.80;78.40
39675;DHT22;27790;50.840;4.386;2023-02-28T08:59:10;8.80;76.30
39675;DHT22;27790;50.840;4.386;2023-02-28T09:01:36;8.60;76.40
39675;DHT22;27790;50.840;4.386;2023-02-28T09:04:01;8.50;76.90
39675;DHT22;27790;50.840;4.386;2023-02-28T09:06:27;8.50;76.80
39675;DHT22;27790;50.840;4.386;2023-02-28T09:08:56;8.10;77.10
39675;DHT22;27790;50.840;4.386;2023-02-28T09:11:27;7.40;78.20
39675;DHT22;27790;50.840;4.386;2023-02-28T09:13:52;6.80;79.40
39675;DHT22;27790;50.840;4.386;2023-02-28T09:16:18;6.20;80.70
39675;DHT22;27790;50.840;4.386;2023-02-28T09:18:44;5.80;80.10
39675;DHT22;27790;50.840;4.386;2023-02-28T09:21:11;5.50;81.60
39675;DHT22;27790;50.840;4.386;2023-02-28T09:23:39;5.20;82.70
39675;DHT22;27790;50.840;4.386;2023-02-28T09:26:05;5.00;82.70
39675;DHT22;27790;50.840;4.386;2023-02-28T09:28:31;4.90;83.20
39675;DHT22;27790;50.840;4.386;2023-02-28T09:30:56;4.70;82.40
39675;DHT22;27790;50.840;4.386;2023-02-28T09:33:24;4.80;83.20
39675;DHT22;27790;50.840;4.386;2023-02-28T09:35:50;4.70;83.20
39675;DHT22;27790;50.840;4.386;2023-02-28T09:38:16;4.70;82.40
39675;DHT22;27790;50.840;4.386;2023-02-28T09:40:50;4.60;82.80
39675;DHT22;27790;50.840;4.386;2023-02-28T09:43:17;4.60;81.30
39675;DHT22;27790;50.840;4.386;2023-02-28T09:45:48;4.70;82.30
39675;DHT22;27790;50.840;4.386;2023-02-28T09:48:18;4.80;82.20
39675;DHT22;27790;50.840;4.386;2023-02-28T09:50:50;4.90;81.90
39675;DHT22;27790;50.840;4.386;2023-02-28T09:53:21;4.90;81.60
39675;DHT22;27790;50.840;4.386;2023-02-28T09:55:55;4.90;82.00
39675;DHT22;27790;50.840;4.386;2023-02-28T10:00:48;4.90;81.10
39675;DHT22;27790;50.840;4.386;2023-02-28T10:05:51;5.10;79.30
39675;DHT22;27790;50.840;4.386;2023-02-28T10:08:37;5.10;79.30
39675;DHT22;27790;50.840;4.386;2023-02-28T10:11:09;5.00;79.80
39675;DHT22;27790;50.840;4.386;2023-02-28T10:13:48;5.10;78.70
39675;DHT22;27790;50.840;4.386;2023-02-28T10:16:24;5.10;78.20
39675;DHT22;27790;50.840;4.386;2023-02-28T10:18:51;5.00;78.40
39675;DHT22;27790;50.840;4.386;2023-02-28T10:21:21;4.90;78.20
39675;DHT22;27790;50.840;4.386;2023-02-28T10:23:48;5.00;78.30
39675;DHT22;27790;50.840;4.386;2023-02-28T10:26:16;4.90;77.00
39675;DHT22;27790;50.840;4.386;2023-02-28T10:28:42;4.70;77.90
39675;DHT22;27790;50.840;4.386;2023-02-28T10:31:15;4.80;78.40
39675;DHT22;27790;50.840;4.386;2023-02-28T10:33:42;4.50;78.50
39675;DHT22;27790;50.840;4.386;2023-02-28T10:36:08;4.60;76.30
39675;DHT22;27790;50.840;4.386;2023-02-28T10:38:36;4.60;76.40
39675;DHT22;27790;50.840;4.386;2023-02-28T10:41:03;4.80;76.10
39675;DHT22;27790;50.840;4.386;2023-02-28T10:43:29;5.10;74.50
39675;DHT22;27790;50.840;4.386;2023-02-28T10:51:00;5.20;73.50
39675;DHT22;27790;50.840;4.386;2023-02-28T10:56:05;5.20;73.80
39675;DHT22;27790;50.840;4.386;2023-02-28T11:01:00;5.40;73.30
39675;DHT22;27790;50.840;4.386;2023-02-28T11:03:30;5.40;72.90
39675;DHT22;27790;50.840;4.386;2023-02-28T11:05:56;5.50;72.40
39675;DHT22;27790;50.840;4.386;2023-02-28T11:08:21;5.20;71.90
39675;DHT22;27790;50.840;4.386;2023-02-28T11:10:48;5.20;73.30
39675;DHT22;27790;50.840;4.386;2023-02-28T11:13:17;5.30;72.70
39675;DHT22;27790;50.840;4.386;2023-02-28T11:15:49;5.40;72.90
39675;DHT22;27790;50.840;4.386;2023-02-28T11:18:20;5.30;72.70
39675;DHT22;27790;50.840;4.386;2023-02-28T11:20:48;5.30;73.40
39675;DHT22;27790;50.840;4.386;2023-02-28T11:23:15;5.50;73.70
39675;DHT22;27790;50.840;4.386;2023-02-28T11:25:41;5.40;72.30
39675;DHT22;27790;50.840;4.386;2023-02-28T11:28:23;5.40;73.30
39675;DHT22;27790;50.840;4.386;2023-02-28T11:33:27;5.20;72.40
39675;DHT22;27790;50.840;4.386;2023-02-28T11:35:56;5.20;73.20
39675;DHT22;27790;50.840;4.386;2023-02-28T11:38:23;5.20;72.90
39675;DHT22;27790;50.840;4.386;2023-02-28T11:45:54;5.20;72.70
39675;DHT22;27790;50.840;4.386;2023-02-28T11:48:22;5.20;72.30
39675;DHT22;27790;50.840;4.386;2023-02-28T11:56:03;5.50;72.20
39675;DHT22;27790;50.840;4.386;2023-02-28T11:58:39;5.60;72.10
39675;DHT22;27790;50.840;4.386;2023-02-28T12:01:16;5.60;72.20
39675;DHT22;27790;50.840;4.386;2023-02-28T12:03:45;5.60;72.40
39675;DHT22;27790;50.840;4.386;2023-02-28T12:06:20;5.80;72.60
39675;DHT22;27790;50.840;4.386;2023-02-28T12:14:07;5.60;72.50
39675;DHT22;27790;50.840;4.386;2023-02-28T12:16:47;5.60;72.40
39675;DHT22;27790;50.840;4.386;2023-02-28T12:19:19;5.60;70.40
39675;DHT22;27790;50.840;4.386;2023-02-28T12:26:48;5.70;70.30
39675;DHT22;27790;50.840;4.386;2023-02-28T12:34:19;6.10;68.90
39675;DHT22;27790;50.840;4.386;2023-02-28T12:36:46;6.10;68.90
39675;DHT22;27790;50.840;4.386;2023-02-28T12:44:11;6.20;68.50
39675;DHT22;27790;50.840;4.386;2023-02-28T12:51:39;6.20;68.30
39675;DHT22;27790;50.840;4.386;2023-02-28T12:56:43;5.90;67.70
39675;DHT22;27790;50.840;4.386;2023-02-28T13:09:25;5.80;67.70
39675;DHT22;27790;50.840;4.386;2023-02-28T13:11:51;5.70;68.60
39675;DHT22;27790;50.840;4.386;2023-02-28T13:14:22;5.70;67.40
39675;DHT22;27790;50.840;4.386;2023-02-28T13:19:16;5.80;68.20
39675;DHT22;27790;50.840;4.386;2023-02-28T13:21:43;5.90;68.10
39675;DHT22;27790;50.840;4.386;2023-02-28T13:24:09;5.90;68.50
39675;DHT22;27790;50.840;4.386;2023-02-28T13:29:02;5.90;68.80
39675;DHT22;27790;50.840;4.386;2023-02-28T13:31:29;6.00;68.30
39675;DHT22;27790;50.840;4.386;2023-02-28T13:36:25;6.10;68.50
39675;DHT22;27790;50.840;4.386;2023-02-28T13:39:01;6.20;68.10
39675;DHT22;27790;50.840;4.386;2023-02-28T13:46:35;6.00;66.70
39675;DHT22;27790;50.840;4.386;2023-02-28T13:51:38;5.90;66.60
39675;DHT22;27790;50.840;4.386;2023-02-28T13:54:51;5.90;66.20
39675;DHT22;27790;50.840;4.386;2023-02-28T14:06:59;5.60;66.50
39675;DHT22;27790;50.840;4.386;2023-02-28T14:11:51;5.90;67.00
39675;DHT22;27790;50.840;4.386;2023-02-28T14:16:53;5.70;66.90
39675;DHT22;27790;50.840;4.386;2023-02-28T14:19:24;5.70;67.00
39675;DHT22;27790;50.840;4.386;2023-02-28T14:24:28;5.90;67.40
39675;DHT22;27790;50.840;4.386;2023-02-28T14:27:03;6.00;67.00
39675;DHT22;27790;50.840;4.386;2023-02-28T14:37:11;6.40;66.60
39675;DHT22;27790;50.840;4.386;2023-02-28T14:39:40;6.40;67.00
39675;DHT22;27790;50.840;4.386;2023-02-28T14:42:24;6.20;66.50
39675;DHT22;27790;50.840;4.386;2023-02-28T14:44:54;6.20;66.60
39675;DHT22;27790;50.840;4.386;2023-02-28T14:47:21;6.00;66.30
39675;DHT22;27790;50.840;4.386;2023-02-28T14:49:48;5.90;66.50
39675;DHT22;27790;50.840;4.386;2023-02-28T14:52:21;5.80;67.20
39675;DHT22;27790;50.840;4.386;2023-02-28T14:57:28;6.00;67.40
39675;DHT22;27790;50.840;4.386;2023-02-28T15:02:36;6.10;67.30
39675;DHT22;27790;50.840;4.386;2023-02-28T15:05:15;6.20;67.00
39675;DHT22;27790;50.840;4.386;2023-02-28T15:07:42;6.30;67.30
39675;DHT22;27790;50.840;4.386;2023-02-28T15:12:34;6.20;67.50
39675;DHT22;27790;50.840;4.386;2023-02-28T15:14:59;6.20;68.50
39675;DHT22;27790;50.840;4.386;2023-02-28T15:17:26;6.20;67.40
39675;DHT22;27790;50.840;4.386;2023-02-28T15:19:52;6.20;67.50
39675;DHT22;27790;50.840;4.386;2023-02-28T15:22:20;6.20;67.60
39675;DHT22;27790;50.840;4.386;2023-02-28T15:24:48;6.20;67.80
39675;DHT22;27790;50.840;4.386;2023-02-28T15:29:45;6.30;67.90
39675;DHT22;27790;50.840;4.386;2023-02-28T15:34:47;6.20;68.30
39675;DHT22;27790;50.840;4.386;2023-02-28T15:39:49;6.20;68.70
39675;DHT22;27790;50.840;4.386;2023-02-28T15:42:19;6.10;68.90
39675;DHT22;27790;50.840;4.386;2023-02-28T15:44:45;6.00;69.30
39675;DHT22;27790;50.840;4.386;2023-02-28T15:52:16;6.20;68.40
39675;DHT22;27790;50.840;4.386;2023-02-28T15:54:43;6.10;68.90
39675;DHT22;27790;50.840;4.386;2023-02-28T15:59:49;6.00;68.90
39675;DHT22;27790;50.840;4.386;2023-02-28T16:02:16;6.00;69.00
39675;DHT22;27790;50.840;4.386;2023-02-28T16:07:19;6.00;69.30
39675;DHT22;27790;50.840;4.386;2023-02-28T16:09:45;5.90;69.20
39675;DHT22;27790;50.840;4.386;2023-02-28T16:12:12;6.10;69.60
39675;DHT22;27790;50.840;4.386;2023-02-28T16:14:38;6.10;68.90
39675;DHT22;27790;50.840;4.386;2023-02-28T16:17:05;6.10;69.30
39675;DHT22;27790;50.840;4.386;2023-02-28T16:19:31;6.10;69.30
39675;DHT22;27790;50.840;4.386;2023-02-28T16:21:56;6.10;69.40
39675;DHT22;27790;50.840;4.386;2023-02-28T16:24:22;6.10;69.30
39675;DHT22;27790;50.840;4.386;2023-02-28T16:26:48;6.00;69.60
39675;DHT22;27790;50.840;4.386;2023-02-28T16:29:37;5.90;69.70
39675;DHT22;27790;50.840;4.386;2023-02-28T16:32:04;5.90;70.10
39675;DHT22;27790;50.840;4.386;2023-02-28T16:34:30;5.90;70.20
39675;DHT22;27790;50.840;4.386;2023-02-28T16:36:55;5.90;70.40
39675;DHT22;27790;50.840;4.386;2023-02-28T16:39:21;5.90;71.40
39675;DHT22;27790;50.840;4.386;2023-02-28T16:41:47;5.80;70.40
39675;DHT22;27790;50.840;4.386;2023-02-28T16:44:22;5.80;71.10
39675;DHT22;27790;50.840;4.386;2023-02-28T16:46:49;5.80;71.00
39675;DHT22;27790;50.840;4.386;2023-02-28T16:49:15;5.70;70.60
39675;DHT22;27790;50.840;4.386;2023-02-28T16:51:40;5.60;71.10
39675;DHT22;27790;50.840;4.386;2023-02-28T16:54:06;5.70;71.10
39675;DHT22;27790;50.840;4.386;2023-02-28T16:56:31;5.70;71.70
39675;DHT22;27790;50.840;4.386;2023-02-28T16:58:59;5.60;71.70
39675;DHT22;27790;50.840;4.386;2023-02-28T17:01:25;5.60;71.60
39675;DHT22;27790;50.840;4.386;2023-02-28T17:03:52;5.60;71.60
39675;DHT22;27790;50.840;4.386;2023-02-28T17:06:26;5.50;71.90
39675;DHT22;27790;50.840;4.386;2023-02-28T17:08:53;5.50;71.90
39675;DHT22;27790;50.840;4.386;2023-02-28T17:11:18;5.40;71.90
39675;DHT22;27790;50.840;4.386;2023-02-28T17:13:44;5.30;72.50
39675;DHT22;27790;50.840;4.386;2023-02-28T17:18:46;5.40;72.90
39675;DHT22;27790;50.840;4.386;2023-02-28T17:21:13;5.40;72.80
39675;DHT22;27790;50.840;4.386;2023-02-28T17:23:39;5.50;72.60
39675;DHT22;27790;50.840;4.386;2023-02-28T17:26:04;5.60;72.20
39675;DHT22;27790;50.840;4.386;2023-02-28T17:28:31;5.50;72.30
39675;DHT22;27790;50.840;4.386;2023-02-28T17:30:57;5.50;72.50
39675;DHT22;27790;50.840;4.386;2023-02-28T17:33:22;5.50;72.70
39675;DHT22;27790;50.840;4.386;2023-02-28T17:35:48;5.50;72.40
39675;DHT22;27790;50.840;4.386;2023-02-28T17:38:15;5.40;72.50
39675;DHT22;27790;50.840;4.386;2023-02-28T17:40:41;5.40;72.80
39675;DHT22;27790;50.840;4.386;2023-02-28T17:43:07;5.30;73.10
39675;DHT22;27790;50.840;4.386;2023-02-28T17:45:32;5.30;72.90
39675;DHT22;27790;50.840;4.386;2023-02-28T17:47:59;5.20;73.00
39675;DHT22;27790;50.840;4.386;2023-02-28T17:50:25;5.20;73.30
39675;DHT22;27790;50.840;4.386;2023-02-28T17:52:50;5.20;73.70
39675;DHT22;27790;50.840;4.386;2023-02-28T17:55:16;5.30;73.40
39675;DHT22;27790;50.840;4.386;2023-02-28T17:57:41;5.20;73.30
39675;DHT22;27790;50.840;4.386;2023-02-28T18:00:07;5.20;73.70
39675;DHT22;27790;50.840;4.386;2023-02-28T18:02:33;5.30;73.80
39675;DHT22;27790;50.840;4.386;2023-02-28T18:04:59;5.30;73.60
39675;DHT22;27790;50.840;4.386;2023-02-28T18:07:24;5.30;73.60
39675;DHT22;27790;50.840;4.386;2023-02-28T18:09:50;5.30;73.70
39675;DHT22;27790;50.840;4.386;2023-02-28T18:12:15;5.30;73.80
39675;DHT22;27790;50.840;4.386;2023-02-28T18:14:41;5.30;73.80
39675;DHT22;27790;50.840;4.386;2023-02-28T18:17:09;5.30;73.70
39675;DHT22;27790;50.840;4.386;2023-02-28T18:19:34;5.30;73.90
39675;DHT22;27790;50.840;4.386;2023-02-28T18:22:00;5.30;73.80
39675;DHT22;27790;50.840;4.386;2023-02-28T18:24:26;5.20;74.10
39675;DHT22;27790;50.840;4.386;2023-02-28T18:26:51;5.20;74.20
39675;DHT22;27790;50.840;4.386;2023-02-28T18:29:18;5.20;74.40
39675;DHT22;27790;50.840;4.386;2023-02-28T18:31:44;5.10;74.40
39675;DHT22;27790;50.840;4.386;2023-02-28T18:34:09;5.00;75.00
39675;DHT22;27790;50.840;4.386;2023-02-28T18:36:35;5.10;74.80